sensor_id;sensor_type;location;lat;lon;timestamp;pressure;altitude;pressure_sealevel;temperature;humidity
10135;BME280;5107;48.850;8.924;2022-07-29T00:00:40;96688.13;;;19.13;76.39
10135;BME280;5107;48.850;8.924;2022-07-29T00:03:10;96691.03;;;19.11;76.58
10135;BME280;5107;48.850;8.924;2022-07-29T00:05:39;96683.44;;;19.08;76.86
10135;BME280;5107;48.850;8.924;2022-07-29T00:08:06;96677.34;;;19.08;77.44
10135;BME280;5107;48.850;8.924;2022-07-29T00:10:35;96678.59;;;19.05;77.07
10135;BME280;5107;48.850;8.924;2022-07-29T00:13:02;96675.31;;;19.03;77.24
10135;BME280;5107;48.850;8.924;2022-07-29T00:15:29;96682.72;;;19.01;77.18
10135;BME280;5107;48.850;8.924;2022-07-29T00:17:56;96673.56;;;18.97;77.75
10135;BME280;5107;48.850;8.924;2022-07-29T00:20:24;96672.13;;;18.94;77.88
10135;BME280;5107;48.850;8.924;2022-07-29T00:22:51;96674.44;;;18.91;77.98
10135;BME280;5107;48.850;8.924;2022-07-29T00:25:19;96670.38;;;18.88;77.82
10135;BME280;5107;48.850;8.924;2022-07-29T00:27:47;96673.69;;;18.84;78.32
10135;BME280;5107;48.850;8.924;2022-07-29T00:30:15;96670.44;;;18.82;78.46
10135;BME280;5107;48.850;8.924;2022-07-29T00:32:42;96660.81;;;18.81;78.28
10135;BME280;5107;48.850;8.924;2022-07-29T00:35:09;96666.16;;;18.81;78.31
10135;BME280;5107;48.850;8.924;2022-07-29T00:37:54;96662.06;;;18.78;78.48
10135;BME280;5107;48.850;8.924;2022-07-29T00:40:21;96664.72;;;18.78;78.29
10135;BME280;5107;48.850;8.924;2022-07-29T00:42:51;96665.97;;;18.76;78.84
10135;BME280;5107;48.850;8.924;2022-07-29T00:45:19;96657.16;;;18.75;78.88
10135;BME280;5107;48.850;8.924;2022-07-29T00:47:48;96659.63;;;18.77;78.73
10135;BME280;5107;48.850;8.924;2022-07-29T00:50:15;96656.59;;;18.73;78.93
10135;BME280;5107;48.850;8.924;2022-07-29T00:52:43;96640.81;;;18.72;79.00
10135;BME280;5107;48.850;8.924;2022-07-29T00:55:12;96641.03;;;18.70;79.08
10135;BME280;5107;48.850;8.924;2022-07-29T00:57:41;96636.94;;;18.68;79.25
10135;BME280;5107;48.850;8.924;2022-07-29T01:00:13;96637.97;;;18.67;79.21
10135;BME280;5107;48.850;8.924;2022-07-29T01:02:40;96636.00;;;18.62;79.56
10135;BME280;5107;48.850;8.924;2022-07-29T01:05:08;96636.44;;;18.59;79.75
10135;BME280;5107;48.850;8.924;2022-07-29T01:07:36;96635.03;;;18.56;79.83
10135;BME280;5107;48.850;8.924;2022-07-29T01:10:05;96638.06;;;18.60;79.80
10135;BME280;5107;48.850;8.924;2022-07-29T01:12:34;96626.38;;;18.61;80.03
10135;BME280;5107;48.850;8.924;2022-07-29T01:15:04;96631.50;;;18.63;80.27
10135;BME280;5107;48.850;8.924;2022-07-29T01:17:36;96633.13;;;18.64;79.99
10135;BME280;5107;48.850;8.924;2022-07-29T01:20:12;96630.25;;;18.65;80.07
10135;BME280;5107;48.850;8.924;2022-07-29T01:23:12;96640.00;;;18.71;79.54
10135;BME280;5107;48.850;8.924;2022-07-29T01:25:58;96629.34;;;18.71;79.77
10135;BME280;5107;48.850;8.924;2022-07-29T01:29:00;96627.41;;;18.78;79.02
10135;BME280;5107;48.850;8.924;2022-07-29T01:31:35;96633.16;;;18.75;79.46
10135;BME280;5107;48.850;8.924;2022-07-29T01:34:07;96632.94;;;18.77;79.48
10135;BME280;5107;48.850;8.924;2022-07-29T01:36:43;96623.31;;;18.76;79.07
10135;BME280;5107;48.850;8.924;2022-07-29T01:39:14;96630.88;;;18.79;78.93
10135;BME280;5107;48.850;8.924;2022-07-29T01:41:49;96628.34;;;18.84;78.25
10135;BME280;5107;48.850;8.924;2022-07-29T01:44:22;96624.53;;;18.80;78.44
10135;BME280;5107;48.850;8.924;2022-07-29T01:46:56;96632.53;;;18.80;78.32
10135;BME280;5107;48.850;8.924;2022-07-29T01:49:29;96621.63;;;18.81;78.16
10135;BME280;5107;48.850;8.924;2022-07-29T01:52:01;96621.75;;;18.86;77.96
10135;BME280;5107;48.850;8.924;2022-07-29T01:54:37;96614.38;;;18.88;77.28
10135;BME280;5107;48.850;8.924;2022-07-29T01:57:11;96623.78;;;18.91;77.03
10135;BME280;5107;48.850;8.924;2022-07-29T01:59:43;96625.75;;;18.95;76.66
10135;BME280;5107;48.850;8.924;2022-07-29T02:02:15;96620.44;;;18.95;77.00
10135;BME280;5107;48.850;8.924;2022-07-29T02:04:45;96619.00;;;18.93;76.95
10135;BME280;5107;48.850;8.924;2022-07-29T02:07:17;96617.97;;;18.94;76.59
10135;BME280;5107;48.850;8.924;2022-07-29T02:09:47;96624.56;;;18.91;76.69
10135;BME280;5107;48.850;8.924;2022-07-29T02:12:18;96617.63;;;18.90;77.09
10135;BME280;5107;48.850;8.924;2022-07-29T02:14:49;96617.84;;;18.89;76.75
10135;BME280;5107;48.850;8.924;2022-07-29T02:17:23;96620.50;;;18.89;76.24
10135;BME280;5107;48.850;8.924;2022-07-29T02:19:53;96623.41;;;18.87;76.52
10135;BME280;5107;48.850;8.924;2022-07-29T02:22:23;96617.25;;;18.87;76.37
10135;BME280;5107;48.850;8.924;2022-07-29T02:24:52;96621.34;;;18.89;76.26
10135;BME280;5107;48.850;8.924;2022-07-29T02:27:20;96625.03;;;18.88;76.50
10135;BME280;5107;48.850;8.924;2022-07-29T02:29:51;96627.09;;;18.86;76.62
10135;BME280;5107;48.850;8.924;2022-07-29T02:32:20;96629.53;;;18.88;76.77
10135;BME280;5107;48.850;8.924;2022-07-29T02:34:49;96627.31;;;18.85;76.89
10135;BME280;5107;48.850;8.924;2022-07-29T02:37:18;96628.34;;;18.84;77.10
10135;BME280;5107;48.850;8.924;2022-07-29T02:39:47;96628.59;;;18.82;77.03
10135;BME280;5107;48.850;8.924;2022-07-29T02:42:17;96623.47;;;18.81;77.07
10135;BME280;5107;48.850;8.924;2022-07-29T02:44:45;96623.69;;;18.79;77.14
10135;BME280;5107;48.850;8.924;2022-07-29T02:47:19;96618.59;;;18.78;77.48
10135;BME280;5107;48.850;8.924;2022-07-29T02:49:55;96621.25;;;18.78;77.44
10135;BME280;5107;48.850;8.924;2022-07-29T02:52:27;96625.16;;;18.75;77.80
10135;BME280;5107;48.850;8.924;2022-07-29T02:55:02;96626.25;;;18.74;78.22
10135;BME280;5107;48.850;8.924;2022-07-29T02:57:39;96619.03;;;18.75;77.96
10135;BME280;5107;48.850;8.924;2022-07-29T03:00:09;96624.97;;;18.77;77.80
10135;BME280;5107;48.850;8.924;2022-07-29T03:02:43;96619.03;;;18.75;77.83
10135;BME280;5107;48.850;8.924;2022-07-29T03:05:15;96621.94;;;18.73;77.66
10135;BME280;5107;48.850;8.924;2022-07-29T03:07:49;96622.59;;;18.69;77.40
10135;BME280;5107;48.850;8.924;2022-07-29T03:10:18;96623.63;;;18.68;77.65
10135;BME280;5107;48.850;8.924;2022-07-29T03:12:45;96626.53;;;18.66;77.37
10135;BME280;5107;48.850;8.924;2022-07-29T03:15:14;96628.59;;;18.64;77.04
10135;BME280;5107;48.850;8.924;2022-07-29T03:17:43;96631.50;;;18.63;76.79
10135;BME280;5107;48.850;8.924;2022-07-29T03:20:11;96631.09;;;18.59;77.31
10135;BME280;5107;48.850;8.924;2022-07-29T03:22:40;96631.53;;;18.56;77.26
10135;BME280;5107;48.850;8.924;2022-07-29T03:25:10;96636.25;;;18.54;77.43
10135;BME280;5107;48.850;8.924;2022-07-29T03:27:38;96641.00;;;18.52;77.44
10135;BME280;5107;48.850;8.924;2022-07-29T03:30:07;96635.44;;;18.53;76.94
10135;BME280;5107;48.850;8.924;2022-07-29T03:32:34;96630.13;;;18.53;76.91
10135;BME280;5107;48.850;8.924;2022-07-29T03:35:04;96627.44;;;18.53;76.73
10135;BME280;5107;48.850;8.924;2022-07-29T03:37:31;96625.81;;;18.52;76.75
10135;BME280;5107;48.850;8.924;2022-07-29T03:40:01;96627.31;;;18.48;77.05
10135;BME280;5107;48.850;8.924;2022-07-29T03:42:32;96623.00;;;18.47;77.05
10135;BME280;5107;48.850;8.924;2022-07-29T03:45:05;96627.53;;;18.47;76.65
10135;BME280;5107;48.850;8.924;2022-07-29T03:47:35;96629.38;;;18.46;76.64
10135;BME280;5107;48.850;8.924;2022-07-29T03:50:10;96626.31;;;18.43;76.81
10135;BME280;5107;48.850;8.924;2022-07-29T03:52:39;96625.75;;;18.41;76.56
10135;BME280;5107;48.850;8.924;2022-07-29T03:55:08;96629.66;;;18.38;77.26
10135;BME280;5107;48.850;8.924;2022-07-29T03:57:36;96632.75;;;18.35;77.37
10135;BME280;5107;48.850;8.924;2022-07-29T04:00:06;96629.34;;;18.28;77.52
10135;BME280;5107;48.850;8.924;2022-07-29T04:02:33;96632.69;;;18.24;77.81
10135;BME280;5107;48.850;8.924;2022-07-29T04:05:01;96628.00;;;18.19;78.18
10135;BME280;5107;48.850;8.924;2022-07-29T04:07:29;96624.75;;;18.17;78.11
10135;BME280;5107;48.850;8.924;2022-07-29T04:09:56;96621.25;;;18.16;78.59
10135;BME280;5107;48.850;8.924;2022-07-29T04:12:23;96623.34;;;18.14;78.45
10135;BME280;5107;48.850;8.924;2022-07-29T04:14:51;96621.94;;;18.12;78.43
10135;BME280;5107;48.850;8.924;2022-07-29T04:17:18;96631.56;;;18.13;78.50
10135;BME280;5107;48.850;8.924;2022-07-29T04:19:45;96625.84;;;18.09;78.80
10135;BME280;5107;48.850;8.924;2022-07-29T04:22:12;96637.31;;;18.10;78.73
10135;BME280;5107;48.850;8.924;2022-07-29T04:24:40;96634.66;;;18.10;79.04
10135;BME280;5107;48.850;8.924;2022-07-29T04:27:07;96635.66;;;18.09;79.29
10135;BME280;5107;48.850;8.924;2022-07-29T04:29:34;96633.69;;;18.04;79.54
10135;BME280;5107;48.850;8.924;2022-07-29T04:32:01;96633.75;;;17.98;80.08
10135;BME280;5107;48.850;8.924;2022-07-29T04:34:28;96631.91;;;17.98;79.93
10135;BME280;5107;48.850;8.924;2022-07-29T04:36:56;96633.75;;;17.98;80.08
10135;BME280;5107;48.850;8.924;2022-07-29T04:39:23;96635.13;;;18.00;80.14
10135;BME280;5107;48.850;8.924;2022-07-29T04:41:52;96636.13;;;18.06;80.19
10135;BME280;5107;48.850;8.924;2022-07-29T04:44:19;96638.94;;;18.11;80.16
10135;BME280;5107;48.850;8.924;2022-07-29T04:46:46;96637.63;;;18.20;79.80
10135;BME280;5107;48.850;8.924;2022-07-29T04:49:13;96635.50;;;18.29;79.64
10135;BME280;5107;48.850;8.924;2022-07-29T04:51:40;96630.91;;;18.36;79.24
10135;BME280;5107;48.850;8.924;2022-07-29T04:54:07;96640.31;;;18.38;79.18
10135;BME280;5107;48.850;8.924;2022-07-29T04:56:34;96635.13;;;18.43;79.14
10135;BME280;5107;48.850;8.924;2022-07-29T04:59:02;96634.59;;;18.60;78.46
10135;BME280;5107;48.850;8.924;2022-07-29T05:01:30;96637.03;;;18.61;78.39
10135;BME280;5107;48.850;8.924;2022-07-29T05:03:57;96643.84;;;18.57;78.68
10135;BME280;5107;48.850;8.924;2022-07-29T05:06:24;96642.59;;;18.60;78.74
10135;BME280;5107;48.850;8.924;2022-07-29T05:08:51;96645.69;;;18.75;78.36
10135;BME280;5107;48.850;8.924;2022-07-29T05:11:18;96645.56;;;18.88;78.15
10135;BME280;5107;48.850;8.924;2022-07-29T05:13:45;96656.94;;;19.13;77.13
10135;BME280;5107;48.850;8.924;2022-07-29T05:16:13;96655.41;;;19.36;77.58
10135;BME280;5107;48.850;8.924;2022-07-29T05:18:41;96652.13;;;19.52;75.92
10135;BME280;5107;48.850;8.924;2022-07-29T05:21:08;96655.53;;;19.70;74.65
10135;BME280;5107;48.850;8.924;2022-07-29T05:23:35;96654.38;;;19.66;74.33
10135;BME280;5107;48.850;8.924;2022-07-29T05:26:02;96654.63;;;19.47;75.50
10135;BME280;5107;48.850;8.924;2022-07-29T05:28:33;96651.31;;;19.51;75.67
10135;BME280;5107;48.850;8.924;2022-07-29T05:31:00;96654.13;;;19.68;74.96
10135;BME280;5107;48.850;8.924;2022-07-29T05:33:29;96659.53;;;19.80;74.33
10135;BME280;5107;48.850;8.924;2022-07-29T05:35:57;96667.19;;;19.88;74.25
10135;BME280;5107;48.850;8.924;2022-07-29T05:38:24;96671.63;;;19.94;75.47
10135;BME280;5107;48.850;8.924;2022-07-29T05:40:51;96663.16;;;20.08;74.10
10135;BME280;5107;48.850;8.924;2022-07-29T05:43:18;96669.31;;;20.09;74.00
10135;BME280;5107;48.850;8.924;2022-07-29T05:45:46;96671.03;;;19.80;74.50
10135;BME280;5107;48.850;8.924;2022-07-29T05:48:13;96673.09;;;19.66;75.36
10135;BME280;5107;48.850;8.924;2022-07-29T05:50:42;96668.94;;;19.52;75.88
10135;BME280;5107;48.850;8.924;2022-07-29T05:53:13;96672.59;;;19.40;75.97
10135;BME280;5107;48.850;8.924;2022-07-29T05:55:40;96678.50;;;19.42;76.27
10135;BME280;5107;48.850;8.924;2022-07-29T05:58:08;96676.63;;;19.60;76.26
10135;BME280;5107;48.850;8.924;2022-07-29T06:00:35;96680.44;;;19.83;76.60
10135;BME280;5107;48.850;8.924;2022-07-29T06:03:02;96681.97;;;19.90;74.89
10135;BME280;5107;48.850;8.924;2022-07-29T06:05:29;96680.94;;;19.91;74.33
10135;BME280;5107;48.850;8.924;2022-07-29T06:07:58;96687.53;;;19.89;74.39
10135;BME280;5107;48.850;8.924;2022-07-29T06:10:25;96695.69;;;20.05;74.01
10135;BME280;5107;48.850;8.924;2022-07-29T06:12:53;96700.56;;;20.08;73.87
10135;BME280;5107;48.850;8.924;2022-07-29T06:15:20;96702.69;;;20.30;73.27
10135;BME280;5107;48.850;8.924;2022-07-29T06:17:47;96703.44;;;20.37;73.10
10135;BME280;5107;48.850;8.924;2022-07-29T06:20:15;96701.34;;;20.39;72.92
10135;BME280;5107;48.850;8.924;2022-07-29T06:22:42;96699.25;;;20.41;72.73
10135;BME280;5107;48.850;8.924;2022-07-29T06:25:11;96704.81;;;20.51;72.79
10135;BME280;5107;48.850;8.924;2022-07-29T06:27:38;96698.31;;;20.59;72.18
10135;BME280;5107;48.850;8.924;2022-07-29T06:30:07;96698.06;;;20.60;71.99
10135;BME280;5107;48.850;8.924;2022-07-29T06:32:35;96698.91;;;20.61;71.98
10135;BME280;5107;48.850;8.924;2022-07-29T06:35:03;96696.44;;;20.82;71.66
10135;BME280;5107;48.850;8.924;2022-07-29T06:37:30;96701.53;;;20.96;72.10
10135;BME280;5107;48.850;8.924;2022-07-29T06:39:57;96710.84;;;21.05;70.90
10135;BME280;5107;48.850;8.924;2022-07-29T06:42:43;96709.19;;;21.27;70.83
10135;BME280;5107;48.850;8.924;2022-07-29T06:45:11;96704.22;;;21.47;69.89
10135;BME280;5107;48.850;8.924;2022-07-29T06:47:38;96709.69;;;22.09;69.06
10135;BME280;5107;48.850;8.924;2022-07-29T06:50:06;96713.31;;;22.37;66.51
10135;BME280;5107;48.850;8.924;2022-07-29T06:52:37;96707.47;;;22.73;65.94
10135;BME280;5107;48.850;8.924;2022-07-29T06:55:06;96718.03;;;23.40;64.95
10135;BME280;5107;48.850;8.924;2022-07-29T06:57:33;96715.50;;;24.04;59.20
10135;BME280;5107;48.850;8.924;2022-07-29T07:00:03;96711.34;;;24.18;55.90
10135;BME280;5107;48.850;8.924;2022-07-29T07:02:31;96713.03;;;23.70;58.32
10135;BME280;5107;48.850;8.924;2022-07-29T07:04:58;96718.09;;;23.45;58.62
10135;BME280;5107;48.850;8.924;2022-07-29T07:07:25;96719.88;;;23.56;59.49
10135;BME280;5107;48.850;8.924;2022-07-29T07:09:53;96713.97;;;24.13;61.07
10135;BME280;5107;48.850;8.924;2022-07-29T07:12:20;96721.03;;;24.88;55.41
10135;BME280;5107;48.850;8.924;2022-07-29T07:14:47;96722.91;;;24.82;55.03
10135;BME280;5107;48.850;8.924;2022-07-29T07:17:15;96725.06;;;24.16;57.14
10135;BME280;5107;48.850;8.924;2022-07-29T07:19:42;96719.00;;;24.04;58.43
10135;BME280;5107;48.850;8.924;2022-07-29T07:22:10;96726.63;;;23.59;58.16
10135;BME280;5107;48.850;8.924;2022-07-29T07:24:37;96729.16;;;23.97;58.04
10135;BME280;5107;48.850;8.924;2022-07-29T07:27:05;96728.03;;;24.20;58.35
10135;BME280;5107;48.850;8.924;2022-07-29T07:29:32;96733.53;;;24.30;58.57
10135;BME280;5107;48.850;8.924;2022-07-29T07:31:59;96727.47;;;24.82;56.26
10135;BME280;5107;48.850;8.924;2022-07-29T07:34:28;96733.69;;;25.29;55.02
10135;BME280;5107;48.850;8.924;2022-07-29T07:36:55;96740.84;;;25.61;54.62
10135;BME280;5107;48.850;8.924;2022-07-29T07:39:22;96732.47;;;25.00;52.79
10135;BME280;5107;48.850;8.924;2022-07-29T07:41:51;96729.88;;;24.41;54.47
10135;BME280;5107;48.850;8.924;2022-07-29T07:44:19;96743.94;;;24.22;55.88
10135;BME280;5107;48.850;8.924;2022-07-29T07:46:46;96739.00;;;25.19;53.40
10135;BME280;5107;48.850;8.924;2022-07-29T07:49:13;96739.03;;;25.87;52.01
10135;BME280;5107;48.850;8.924;2022-07-29T07:51:41;96740.69;;;25.98;53.44
10135;BME280;5107;48.850;8.924;2022-07-29T07:54:09;96736.22;;;25.51;50.57
10135;BME280;5107;48.850;8.924;2022-07-29T07:56:36;96743.84;;;25.69;51.12
10135;BME280;5107;48.850;8.924;2022-07-29T07:59:03;96742.75;;;25.60;50.72
10135;BME280;5107;48.850;8.924;2022-07-29T08:01:31;96744.72;;;25.85;50.86
10135;BME280;5107;48.850;8.924;2022-07-29T08:03:58;96740.75;;;25.36;49.86
10135;BME280;5107;48.850;8.924;2022-07-29T08:06:25;96739.97;;;25.50;49.50
10135;BME280;5107;48.850;8.924;2022-07-29T08:08:53;96738.81;;;26.08;52.27
10135;BME280;5107;48.850;8.924;2022-07-29T08:11:20;96739.00;;;25.19;49.57
10135;BME280;5107;48.850;8.924;2022-07-29T08:13:48;96740.09;;;25.76;51.58
10135;BME280;5107;48.850;8.924;2022-07-29T08:16:15;96746.34;;;25.96;49.21
10135;BME280;5107;48.850;8.924;2022-07-29T08:18:43;96749.63;;;26.19;51.45
10135;BME280;5107;48.850;8.924;2022-07-29T08:21:11;96740.34;;;25.74;48.84
10135;BME280;5107;48.850;8.924;2022-07-29T08:23:38;96743.31;;;25.67;48.54
10135;BME280;5107;48.850;8.924;2022-07-29T08:26:13;96744.31;;;25.56;50.71
10135;BME280;5107;48.850;8.924;2022-07-29T08:28:42;96741.72;;;25.77;48.92
10135;BME280;5107;48.850;8.924;2022-07-29T08:31:12;96737.19;;;25.92;48.70
10135;BME280;5107;48.850;8.924;2022-07-29T08:33:39;96743.69;;;26.22;47.57
10135;BME280;5107;48.850;8.924;2022-07-29T08:36:06;96744.81;;;26.51;47.75
10135;BME280;5107;48.850;8.924;2022-07-29T08:38:34;96743.94;;;26.15;48.56
10135;BME280;5107;48.850;8.924;2022-07-29T08:41:01;96745.50;;;25.76;49.70
10135;BME280;5107;48.850;8.924;2022-07-29T08:43:30;96733.75;;;26.42;47.56
10135;BME280;5107;48.850;8.924;2022-07-29T08:45:58;96742.63;;;26.99;47.25
10135;BME280;5107;48.850;8.924;2022-07-29T08:48:25;96740.53;;;27.70;46.66
10135;BME280;5107;48.850;8.924;2022-07-29T08:50:55;96745.47;;;28.07;47.64
10135;BME280;5107;48.850;8.924;2022-07-29T08:53:25;96741.47;;;28.39;43.15
10135;BME280;5107;48.850;8.924;2022-07-29T08:55:53;96741.88;;;28.61;43.19
10135;BME280;5107;48.850;8.924;2022-07-29T08:58:21;96743.22;;;27.70;43.62
10135;BME280;5107;48.850;8.924;2022-07-29T09:00:54;96745.34;;;26.83;45.14
10135;BME280;5107;48.850;8.924;2022-07-29T09:03:24;96740.47;;;27.01;45.51
10135;BME280;5107;48.850;8.924;2022-07-29T09:05:51;96742.34;;;27.15;45.77
10135;BME280;5107;48.850;8.924;2022-07-29T09:08:19;96734.38;;;27.54;43.02
10135;BME280;5107;48.850;8.924;2022-07-29T09:10:47;96736.41;;;27.83;43.36
10135;BME280;5107;48.850;8.924;2022-07-29T09:13:15;96743.66;;;27.92;43.72
10135;BME280;5107;48.850;8.924;2022-07-29T09:15:42;96754.88;;;28.15;43.30
10135;BME280;5107;48.850;8.924;2022-07-29T09:18:10;96749.38;;;28.35;41.39
10135;BME280;5107;48.850;8.924;2022-07-29T09:20:38;96751.72;;;28.03;43.02
10135;BME280;5107;48.850;8.924;2022-07-29T09:23:23;96743.16;;;28.29;40.99
10135;BME280;5107;48.850;8.924;2022-07-29T09:25:50;96749.72;;;28.23;39.94
10135;BME280;5107;48.850;8.924;2022-07-29T09:28:18;96742.16;;;28.59;39.50
10135;BME280;5107;48.850;8.924;2022-07-29T09:30:51;96747.19;;;28.37;38.47
10135;BME280;5107;48.850;8.924;2022-07-29T09:33:21;96744.88;;;28.54;39.28
10135;BME280;5107;48.850;8.924;2022-07-29T09:35:59;96739.38;;;28.98;38.93
10135;BME280;5107;48.850;8.924;2022-07-29T09:38:29;96735.63;;;28.60;38.58
10135;BME280;5107;48.850;8.924;2022-07-29T09:40:57;96737.00;;;28.58;38.69
10135;BME280;5107;48.850;8.924;2022-07-29T09:43:24;96731.03;;;28.22;39.79
10135;BME280;5107;48.850;8.924;2022-07-29T09:45:52;96735.47;;;28.47;40.27
10135;BME280;5107;48.850;8.924;2022-07-29T09:48:23;96732.44;;;28.19;38.90
10135;BME280;5107;48.850;8.924;2022-07-29T09:50:50;96726.44;;;28.22;39.53
10135;BME280;5107;48.850;8.924;2022-07-29T09:53:32;96729.16;;;28.22;39.57
10135;BME280;5107;48.850;8.924;2022-07-29T09:56:00;96735.84;;;28.35;38.09
10135;BME280;5107;48.850;8.924;2022-07-29T09:58:27;96725.34;;;28.23;39.15
10135;BME280;5107;48.850;8.924;2022-07-29T10:00:55;96732.06;;;28.31;38.63
10135;BME280;5107;48.850;8.924;2022-07-29T10:03:24;96728.16;;;28.47;39.49
10135;BME280;5107;48.850;8.924;2022-07-29T10:06:06;96730.84;;;28.81;37.68
10135;BME280;5107;48.850;8.924;2022-07-29T10:08:34;96731.09;;;28.85;38.20
10135;BME280;5107;48.850;8.924;2022-07-29T10:11:10;96732.06;;;28.65;38.04
10135;BME280;5107;48.850;8.924;2022-07-29T10:13:38;96730.03;;;29.10;39.03
10135;BME280;5107;48.850;8.924;2022-07-29T10:16:06;96727.34;;;29.57;35.58
10135;BME280;5107;48.850;8.924;2022-07-29T10:18:36;96731.97;;;28.75;36.62
10135;BME280;5107;48.850;8.924;2022-07-29T10:21:04;96721.38;;;28.11;37.39
10135;BME280;5107;48.850;8.924;2022-07-29T10:23:32;96718.59;;;27.77;38.50
10135;BME280;5107;48.850;8.924;2022-07-29T10:26:00;96715.59;;;27.09;38.41
10135;BME280;5107;48.850;8.924;2022-07-29T10:28:30;96728.34;;;26.63;39.56
10135;BME280;5107;48.850;8.924;2022-07-29T10:31:04;96731.56;;;26.85;40.40
10135;BME280;5107;48.850;8.924;2022-07-29T10:33:52;96731.06;;;26.68;40.05
10135;BME280;5107;48.850;8.924;2022-07-29T10:36:42;96732.91;;;26.72;40.91
10135;BME280;5107;48.850;8.924;2022-07-29T10:39:24;96728.63;;;26.61;40.61
10135;BME280;5107;48.850;8.924;2022-07-29T10:42:08;96731.56;;;26.29;40.41
10135;BME280;5107;48.850;8.924;2022-07-29T10:44:41;96732.09;;;26.11;40.81
10135;BME280;5107;48.850;8.924;2022-07-29T10:47:19;96726.38;;;25.92;41.58
10135;BME280;5107;48.850;8.924;2022-07-29T10:49:59;96729.34;;;25.96;41.42
10135;BME280;5107;48.850;8.924;2022-07-29T10:52:52;96724.25;;;26.20;40.25
10135;BME280;5107;48.850;8.924;2022-07-29T10:55:34;96725.91;;;26.31;41.10
10135;BME280;5107;48.850;8.924;2022-07-29T10:58:13;96714.03;;;26.47;40.88
10135;BME280;5107;48.850;8.924;2022-07-29T11:00:41;96716.22;;;26.35;40.34
10135;BME280;5107;48.850;8.924;2022-07-29T11:03:08;96709.44;;;26.37;39.81
10135;BME280;5107;48.850;8.924;2022-07-29T11:05:54;96705.81;;;27.28;39.45
10135;BME280;5107;48.850;8.924;2022-07-29T11:08:25;96703.94;;;28.27;39.34
10135;BME280;5107;48.850;8.924;2022-07-29T11:11:30;96706.50;;;29.05;37.35
10135;BME280;5107;48.850;8.924;2022-07-29T11:13:57;96694.63;;;29.01;36.57
10135;BME280;5107;48.850;8.924;2022-07-29T11:16:25;96705.84;;;29.13;36.66
10135;BME280;5107;48.850;8.924;2022-07-29T11:19:21;96698.22;;;28.62;35.21
10135;BME280;5107;48.850;8.924;2022-07-29T11:21:50;96696.25;;;28.39;36.32
10135;BME280;5107;48.850;8.924;2022-07-29T11:24:21;96697.34;;;28.38;35.80
10135;BME280;5107;48.850;8.924;2022-07-29T11:27:10;96704.69;;;28.66;35.84
10135;BME280;5107;48.850;8.924;2022-07-29T11:29:47;96711.38;;;28.45;36.04
10135;BME280;5107;48.850;8.924;2022-07-29T11:32:16;96709.09;;;28.23;36.11
10135;BME280;5107;48.850;8.924;2022-07-29T11:34:46;96704.16;;;28.36;36.71
10135;BME280;5107;48.850;8.924;2022-07-29T11:37:23;96702.56;;;28.29;36.58
10135;BME280;5107;48.850;8.924;2022-07-29T11:40:20;96710.47;;;27.77;37.65
10135;BME280;5107;48.850;8.924;2022-07-29T11:42:49;96708.78;;;27.27;38.00
10135;BME280;5107;48.850;8.924;2022-07-29T11:45:26;96706.25;;;27.61;39.26
10135;BME280;5107;48.850;8.924;2022-07-29T11:47:59;96703.00;;;27.48;38.38
10135;BME280;5107;48.850;8.924;2022-07-29T11:50:33;96704.66;;;27.44;38.38
10135;BME280;5107;48.850;8.924;2022-07-29T11:53:10;96699.41;;;26.99;38.55
10135;BME280;5107;48.850;8.924;2022-07-29T11:55:39;96716.13;;;27.16;38.57
10135;BME280;5107;48.850;8.924;2022-07-29T11:58:07;96723.75;;;26.58;44.53
10135;BME280;5107;48.850;8.924;2022-07-29T12:00:37;96722.09;;;26.01;47.41
10135;BME280;5107;48.850;8.924;2022-07-29T12:03:06;96726.63;;;25.81;48.33
10135;BME280;5107;48.850;8.924;2022-07-29T12:05:38;96725.81;;;25.75;47.69
10135;BME280;5107;48.850;8.924;2022-07-29T12:08:16;96720.75;;;25.31;48.81
10135;BME280;5107;48.850;8.924;2022-07-29T12:10:45;96713.84;;;25.56;47.23
10135;BME280;5107;48.850;8.924;2022-07-29T12:13:14;96710.84;;;25.47;47.45
10135;BME280;5107;48.850;8.924;2022-07-29T12:15:42;96722.00;;;25.66;47.36
10135;BME280;5107;48.850;8.924;2022-07-29T12:18:16;96715.44;;;25.47;47.15
10135;BME280;5107;48.850;8.924;2022-07-29T12:20:44;96718.06;;;25.26;47.81
10135;BME280;5107;48.850;8.924;2022-07-29T12:23:14;96722.06;;;25.24;47.62
10135;BME280;5107;48.850;8.924;2022-07-29T12:25:44;96724.56;;;25.41;46.33
10135;BME280;5107;48.850;8.924;2022-07-29T12:28:13;96722.44;;;25.48;45.71
10135;BME280;5107;48.850;8.924;2022-07-29T12:30:46;96718.94;;;25.42;45.14
10135;BME280;5107;48.850;8.924;2022-07-29T12:33:21;96719.66;;;25.27;45.15
10135;BME280;5107;48.850;8.924;2022-07-29T12:35:51;96728.22;;;25.09;46.97
10135;BME280;5107;48.850;8.924;2022-07-29T12:38:21;96723.59;;;25.05;47.45
10135;BME280;5107;48.850;8.924;2022-07-29T12:40:49;96719.41;;;24.87;47.93
10135;BME280;5107;48.850;8.924;2022-07-29T12:43:19;96720.41;;;25.13;48.45
10135;BME280;5107;48.850;8.924;2022-07-29T12:45:49;96721.56;;;24.85;49.42
10135;BME280;5107;48.850;8.924;2022-07-29T12:48:17;96715.97;;;24.54;50.10
10135;BME280;5107;48.850;8.924;2022-07-29T12:50:56;96720.66;;;24.32;51.36
10135;BME280;5107;48.850;8.924;2022-07-29T12:53:25;96727.00;;;24.21;51.75
10135;BME280;5107;48.850;8.924;2022-07-29T12:55:54;96725.19;;;24.05;53.12
10135;BME280;5107;48.850;8.924;2022-07-29T12:58:35;96727.06;;;23.77;52.54
10135;BME280;5107;48.850;8.924;2022-07-29T13:01:06;96726.63;;;23.86;51.81
10135;BME280;5107;48.850;8.924;2022-07-29T13:03:45;96734.03;;;24.00;51.34
10135;BME280;5107;48.850;8.924;2022-07-29T13:06:36;96728.47;;;24.07;51.10
10135;BME280;5107;48.850;8.924;2022-07-29T13:09:08;96733.13;;;24.16;50.80
10135;BME280;5107;48.850;8.924;2022-07-29T13:11:38;96724.53;;;24.19;50.78
10135;BME280;5107;48.850;8.924;2022-07-29T13:14:07;96733.59;;;24.35;50.36
10135;BME280;5107;48.850;8.924;2022-07-29T13:16:36;96735.28;;;24.46;50.58
10135;BME280;5107;48.850;8.924;2022-07-29T13:19:09;96729.31;;;24.76;50.98
10135;BME280;5107;48.850;8.924;2022-07-29T13:21:38;96739.44;;;24.96;49.40
10135;BME280;5107;48.850;8.924;2022-07-29T13:24:08;96739.72;;;25.00;49.10
10135;BME280;5107;48.850;8.924;2022-07-29T13:26:39;96732.63;;;24.88;49.70